NBL99 YBMK-YBCG
Flight info
| Callsign | NBL99 |
|---|---|
| Flight time | 1h 16m |
| Altitude | 35000 |
| Route | YBMK/14 N0469F350 MUNAR1 MUNAR Y61 RUROX Y177 BN J208 SCOTT P880 LAMSI LAMS3Y YBCG/14 |
| Aircraft | B738/M-SDE2E3FGHIRWXY/LB1 |
Departure
| Time | 2026-04-20 20:04 |
|---|---|
| Airport | Mackay Airport (YBMK) |
Arrival
| Time | 2026-04-20 21:20 |
|---|---|
| Airport | Gold Coast Airport (YBCG) |
| Time | Latitude | Longitude | Altitude | Speed | Heading |
|---|---|---|---|---|---|
| 2026-04-20 19:48 | -21.17633 | 149.18308 | 28 ft | 0 kts | 277° |
| 2026-04-20 20:00 | -21.17602 | 149.18294 | 22 ft | 16 kts | 358° |
| 2026-04-20 20:00 | -21.17460 | 149.18228 | 25 ft | 30 kts | 328° |
| 2026-04-20 20:01 | -21.17293 | 149.18114 | 26 ft | 29 kts | 327° |
| 2026-04-20 20:01 | -21.17206 | 149.18064 | 26 ft | 13 kts | 3° |
| 2026-04-20 20:01 | -21.17135 | 149.18156 | 26 ft | 17 kts | 60° |
| 2026-04-20 20:01 | -21.17068 | 149.18239 | 28 ft | 14 kts | 9° |
| 2026-04-20 20:02 | -21.16966 | 149.18185 | 28 ft | 20 kts | 328° |
| 2026-04-20 20:02 | -21.16824 | 149.18087 | 28 ft | 29 kts | 327° |
| 2026-04-20 20:02 | -21.16634 | 149.17959 | 24 ft | 35 kts | 329° |
| 2026-04-20 20:02 | -21.16423 | 149.17822 | 25 ft | 27 kts | 329° |
| 2026-04-20 20:03 | -21.16325 | 149.17756 | 27 ft | 9 kts | 264° |
| 2026-04-20 20:03 | -21.16345 | 149.17760 | 26 ft | 4 kts | 127° |
| 2026-04-20 20:03 | -21.16362 | 149.17781 | 28 ft | 4 kts | 139° |
| 2026-04-20 20:03 | -21.16481 | 149.17867 | 24 ft | 56 kts | 147° |
| 2026-04-20 20:04 | -21.17062 | 149.18254 | 27 ft | 137 kts | 148° |
| 2026-04-20 20:04 | -21.18028 | 149.18902 | 352 ft | 178 kts | 148° |
| 2026-04-20 20:04 | -21.19120 | 149.19632 | 1265 ft | 186 kts | 147° |
| 2026-04-20 20:04 | -21.20179 | 149.20372 | 2402 ft | 187 kts | 145° |
| 2026-04-20 20:05 | -21.21337 | 149.21172 | 2744 ft | 212 kts | 145° |
| 2026-04-20 20:05 | -21.22624 | 149.22059 | 3210 ft | 225 kts | 145° |
| 2026-04-20 20:05 | -21.24100 | 149.22820 | 3646 ft | 249 kts | 163° |
| 2026-04-20 20:05 | -21.25827 | 149.23202 | 4454 ft | 255 kts | 166° |
| 2026-04-20 20:06 | -21.27575 | 149.23573 | 5366 ft | 256 kts | 165° |
| 2026-04-20 20:06 | -21.29313 | 149.23944 | 6268 ft | 259 kts | 165° |
| 2026-04-20 20:06 | -21.31094 | 149.24328 | 7088 ft | 263 kts | 166° |
| 2026-04-20 20:06 | -21.32905 | 149.24719 | 7882 ft | 268 kts | 166° |
| 2026-04-20 20:07 | -21.34744 | 149.25119 | 8686 ft | 272 kts | 167° |
| 2026-04-20 20:07 | -21.36612 | 149.25527 | 9497 ft | 276 kts | 167° |
| 2026-04-20 20:07 | -21.38511 | 149.25943 | 10282 ft | 280 kts | 167° |
| 2026-04-20 20:07 | -21.40478 | 149.26375 | 10674 ft | 300 kts | 167° |
| 2026-04-20 20:08 | -21.42609 | 149.26844 | 10843 ft | 324 kts | 168° |
| 2026-04-20 20:08 | -21.44896 | 149.27347 | 11062 ft | 345 kts | 168° |
| 2026-04-20 20:08 | -21.47281 | 149.27872 | 11600 ft | 353 kts | 168° |
| 2026-04-20 20:08 | -21.49687 | 149.28411 | 12312 ft | 356 kts | 167° |
| 2026-04-20 20:09 | -21.52067 | 149.29182 | 13052 ft | 358 kts | 161° |
| 2026-04-20 20:09 | -21.54411 | 149.30146 | 13725 ft | 362 kts | 159° |
| 2026-04-20 20:09 | -21.56759 | 149.31179 | 14325 ft | 366 kts | 158° |
| 2026-04-20 20:09 | -21.59123 | 149.32231 | 14896 ft | 371 kts | 159° |
| 2026-04-20 20:10 | -21.61525 | 149.33289 | 15465 ft | 375 kts | 159° |
| 2026-04-20 20:10 | -21.63924 | 149.34329 | 16033 ft | 378 kts | 159° |
| 2026-04-20 20:10 | -21.66378 | 149.35378 | 16590 ft | 382 kts | 160° |
| 2026-04-20 20:10 | -21.68868 | 149.36437 | 17159 ft | 386 kts | 160° |
| 2026-04-20 20:11 | -21.71386 | 149.37501 | 17685 ft | 391 kts | 160° |
| 2026-04-20 20:11 | -21.73933 | 149.38572 | 18229 ft | 395 kts | 160° |
| 2026-04-20 20:11 | -21.76497 | 149.39651 | 18701 ft | 398 kts | 160° |
| 2026-04-20 20:11 | -21.79091 | 149.40742 | 19187 ft | 401 kts | 161° |
| 2026-04-20 20:12 | -21.80849 | 149.41481 | 19525 ft | 402 kts | 161° |
| 2026-04-20 20:12 | -21.83468 | 149.42584 | 20002 ft | 405 kts | 161° |
| 2026-04-20 20:12 | -21.86071 | 149.43680 | 20471 ft | 408 kts | 161° |
| 2026-04-20 20:13 | -21.91388 | 149.45922 | 21437 ft | 413 kts | 161° |
| 2026-04-20 20:13 | -21.94071 | 149.47056 | 21902 ft | 415 kts | 161° |
| 2026-04-20 20:13 | -21.96763 | 149.48197 | 22330 ft | 418 kts | 161° |
| 2026-04-20 20:13 | -21.99484 | 149.49349 | 22743 ft | 421 kts | 161° |
| 2026-04-20 20:14 | -22.02224 | 149.50509 | 23164 ft | 424 kts | 162° |
| 2026-04-20 20:14 | -22.04982 | 149.51674 | 23574 ft | 426 kts | 162° |
| 2026-04-20 20:14 | -22.07756 | 149.52845 | 23926 ft | 429 kts | 162° |
| 2026-04-20 20:14 | -22.10547 | 149.54027 | 24242 ft | 432 kts | 162° |
| 2026-04-20 20:15 | -22.13356 | 149.55215 | 24548 ft | 434 kts | 162° |
| 2026-04-20 20:15 | -22.16171 | 149.56405 | 24865 ft | 437 kts | 162° |
| 2026-04-20 20:15 | -22.19011 | 149.57608 | 25164 ft | 439 kts | 162° |
| 2026-04-20 20:15 | -22.21867 | 149.58817 | 25496 ft | 441 kts | 162° |
| 2026-04-20 20:16 | -22.24722 | 149.60024 | 25844 ft | 442 kts | 162° |
| 2026-04-20 20:16 | -22.27607 | 149.61245 | 26156 ft | 445 kts | 162° |
| 2026-04-20 20:16 | -22.30490 | 149.62465 | 26443 ft | 447 kts | 162° |
| 2026-04-20 20:16 | -22.33361 | 149.63683 | 26707 ft | 450 kts | 162° |
| 2026-04-20 20:17 | -22.36286 | 149.64928 | 26978 ft | 452 kts | 162° |
| 2026-04-20 20:17 | -22.39216 | 149.66174 | 27264 ft | 454 kts | 163° |
| 2026-04-20 20:17 | -22.42168 | 149.67429 | 27530 ft | 457 kts | 163° |
| 2026-04-20 20:17 | -22.45136 | 149.68694 | 27787 ft | 459 kts | 163° |
| 2026-04-20 20:18 | -22.48107 | 149.69962 | 28039 ft | 461 kts | 163° |
| 2026-04-20 20:18 | -22.51104 | 149.71238 | 28286 ft | 463 kts | 163° |
| 2026-04-20 20:18 | -22.54111 | 149.72516 | 28606 ft | 464 kts | 163° |
| 2026-04-20 20:18 | -22.57110 | 149.73793 | 28906 ft | 465 kts | 163° |
| 2026-04-20 20:19 | -22.60129 | 149.75079 | 29145 ft | 467 kts | 163° |
| 2026-04-20 20:19 | -22.63159 | 149.76372 | 29424 ft | 468 kts | 163° |
| 2026-04-20 20:19 | -22.66187 | 149.77666 | 29789 ft | 467 kts | 163° |
| 2026-04-20 20:19 | -22.69198 | 149.78954 | 30184 ft | 466 kts | 163° |
| 2026-04-20 20:20 | -22.72213 | 149.80242 | 30482 ft | 465 kts | 163° |
| 2026-04-20 20:20 | -22.75225 | 149.81530 | 30790 ft | 465 kts | 163° |
| 2026-04-20 20:20 | -22.78232 | 149.82816 | 31121 ft | 464 kts | 164° |
| 2026-04-20 20:20 | -22.81192 | 149.84081 | 31447 ft | 462 kts | 164° |
| 2026-04-20 20:21 | -22.84184 | 149.85358 | 31827 ft | 460 kts | 164° |
| 2026-04-20 20:21 | -22.87151 | 149.86629 | 32264 ft | 456 kts | 164° |
| 2026-04-20 20:21 | -22.90100 | 149.87893 | 32587 ft | 455 kts | 164° |
| 2026-04-20 20:21 | -22.93054 | 149.89157 | 32821 ft | 457 kts | 164° |
| 2026-04-20 20:22 | -22.96011 | 149.90420 | 33033 ft | 458 kts | 164° |
| 2026-04-20 20:22 | -22.98978 | 149.91692 | 33327 ft | 457 kts | 164° |
| 2026-04-20 20:22 | -23.01935 | 149.92963 | 33683 ft | 456 kts | 164° |
| 2026-04-20 20:22 | -23.04882 | 149.94230 | 34001 ft | 455 kts | 165° |
| 2026-04-20 20:23 | -23.07828 | 149.95493 | 34249 ft | 455 kts | 165° |
| 2026-04-20 20:23 | -23.10776 | 149.96757 | 34463 ft | 455 kts | 165° |
| 2026-04-20 20:23 | -23.13711 | 149.98017 | 34737 ft | 454 kts | 164° |
| 2026-04-20 20:23 | -23.16600 | 149.99259 | 35097 ft | 450 kts | 164° |
| 2026-04-20 20:24 | -23.22455 | 150.01776 | 35187 ft | 455 kts | 164° |
| 2026-04-20 20:24 | -23.28327 | 150.04301 | 35185 ft | 451 kts | 164° |
| 2026-04-20 20:25 | -23.34141 | 150.06807 | 35205 ft | 448 kts | 164° |
| 2026-04-20 20:25 | -23.39925 | 150.09303 | 35193 ft | 446 kts | 164° |
| 2026-04-20 20:26 | -23.45699 | 150.11796 | 35208 ft | 445 kts | 164° |
| 2026-04-20 20:26 | -23.51465 | 150.14288 | 35199 ft | 445 kts | 164° |
| 2026-04-20 20:27 | -23.57220 | 150.16780 | 35194 ft | 445 kts | 164° |
| 2026-04-20 20:27 | -23.62991 | 150.19281 | 35211 ft | 446 kts | 164° |
| 2026-04-20 20:28 | -23.68770 | 150.21784 | 35210 ft | 448 kts | 164° |
| 2026-04-20 20:28 | -23.74539 | 150.24287 | 35229 ft | 449 kts | 163° |
| 2026-04-20 20:29 | -23.80351 | 150.26813 | 35211 ft | 450 kts | 163° |
| 2026-04-20 20:29 | -23.86177 | 150.29355 | 35205 ft | 450 kts | 163° |
| 2026-04-20 20:30 | -23.92000 | 150.31890 | 35211 ft | 450 kts | 163° |
| 2026-04-20 20:30 | -23.97803 | 150.34420 | 35211 ft | 449 kts | 163° |
| 2026-04-20 20:31 | -24.03606 | 150.36951 | 35210 ft | 448 kts | 163° |
| 2026-04-20 20:31 | -24.09387 | 150.39474 | 35218 ft | 446 kts | 163° |
| 2026-04-20 20:32 | -24.15143 | 150.41989 | 35211 ft | 446 kts | 162° |
| 2026-04-20 20:32 | -24.20897 | 150.44505 | 35214 ft | 444 kts | 163° |
| 2026-04-20 20:33 | -24.26623 | 150.47010 | 35234 ft | 443 kts | 163° |
| 2026-04-20 20:33 | -24.32339 | 150.49509 | 35223 ft | 442 kts | 163° |
| 2026-04-20 20:34 | -24.38016 | 150.51998 | 35236 ft | 441 kts | 162° |
| 2026-04-20 20:34 | -24.43720 | 150.54504 | 35224 ft | 441 kts | 162° |
| 2026-04-20 20:35 | -24.49387 | 150.57066 | 35226 ft | 442 kts | 158° |
| 2026-04-20 20:35 | -24.54644 | 150.60681 | 35228 ft | 447 kts | 150° |
| 2026-04-20 20:36 | -24.59785 | 150.64509 | 35233 ft | 447 kts | 150° |
| 2026-04-20 20:36 | -24.64938 | 150.68320 | 35231 ft | 447 kts | 151° |
| 2026-04-20 20:37 | -24.70080 | 150.72094 | 35233 ft | 447 kts | 151° |
| 2026-04-20 20:37 | -24.75265 | 150.75888 | 35249 ft | 448 kts | 151° |
| 2026-04-20 20:38 | -24.80454 | 150.79687 | 35242 ft | 449 kts | 151° |
| 2026-04-20 20:38 | -24.85650 | 150.83498 | 35237 ft | 449 kts | 151° |
| 2026-04-20 20:39 | -24.90862 | 150.87323 | 35241 ft | 450 kts | 151° |
| 2026-04-20 20:39 | -24.96071 | 150.91149 | 35239 ft | 450 kts | 151° |
| 2026-04-20 20:40 | -25.01282 | 150.94983 | 35250 ft | 450 kts | 150° |
| 2026-04-20 20:40 | -25.06499 | 150.98825 | 35235 ft | 450 kts | 151° |
| 2026-04-20 20:41 | -25.11698 | 151.02659 | 35239 ft | 449 kts | 150° |
| 2026-04-20 20:41 | -25.16886 | 151.06488 | 35243 ft | 448 kts | 150° |
| 2026-04-20 20:42 | -25.22073 | 151.10324 | 35246 ft | 448 kts | 150° |
| 2026-04-20 20:42 | -25.27206 | 151.14125 | 35246 ft | 447 kts | 150° |
| 2026-04-20 20:43 | -25.32365 | 151.17945 | 35255 ft | 446 kts | 150° |
| 2026-04-20 20:43 | -25.37517 | 151.21764 | 35243 ft | 446 kts | 150° |
| 2026-04-20 20:44 | -25.42671 | 151.25586 | 35247 ft | 445 kts | 150° |
| 2026-04-20 20:44 | -25.47808 | 151.29399 | 35244 ft | 444 kts | 150° |
| 2026-04-20 20:45 | -25.52946 | 151.33217 | 35243 ft | 444 kts | 150° |
| 2026-04-20 20:45 | -25.58072 | 151.37031 | 35252 ft | 444 kts | 150° |
| 2026-04-20 20:46 | -25.63175 | 151.40831 | 35244 ft | 444 kts | 150° |
| 2026-04-20 20:46 | -25.68337 | 151.44678 | 35253 ft | 444 kts | 151° |
| 2026-04-20 20:47 | -25.73438 | 151.48484 | 35251 ft | 445 kts | 150° |
| 2026-04-20 20:47 | -25.78295 | 151.52811 | 35258 ft | 450 kts | 143° |
| 2026-04-20 20:48 | -25.82916 | 151.57495 | 35247 ft | 450 kts | 142° |
| 2026-04-20 20:48 | -25.87536 | 151.62182 | 35252 ft | 450 kts | 143° |
| 2026-04-20 20:49 | -25.92190 | 151.66843 | 35266 ft | 450 kts | 143° |
| 2026-04-20 20:49 | -25.96859 | 151.71491 | 35252 ft | 450 kts | 143° |
| 2026-04-20 20:50 | -26.01524 | 151.76129 | 35259 ft | 450 kts | 143° |
| 2026-04-20 20:50 | -26.06163 | 151.80748 | 35256 ft | 450 kts | 143° |
| 2026-04-20 20:51 | -26.10824 | 151.85399 | 35252 ft | 449 kts | 143° |
| 2026-04-20 20:51 | -26.15476 | 151.90046 | 35258 ft | 448 kts | 143° |
| 2026-04-20 20:52 | -26.20122 | 151.94691 | 35280 ft | 448 kts | 143° |
| 2026-04-20 20:52 | -26.24764 | 151.99328 | 35270 ft | 448 kts | 143° |
| 2026-04-20 20:53 | -26.29397 | 152.03975 | 35260 ft | 448 kts | 143° |
| 2026-04-20 20:53 | -26.34024 | 152.08620 | 35273 ft | 448 kts | 143° |
| 2026-04-20 20:54 | -26.38655 | 152.13271 | 35258 ft | 447 kts | 143° |
| 2026-04-20 20:54 | -26.43274 | 152.17911 | 35258 ft | 447 kts | 143° |
| 2026-04-20 20:55 | -26.47889 | 152.22548 | 35262 ft | 446 kts | 143° |
| 2026-04-20 20:55 | -26.52496 | 152.27189 | 35263 ft | 446 kts | 143° |
| 2026-04-20 20:56 | -26.57084 | 152.31822 | 35260 ft | 446 kts | 143° |
| 2026-04-20 20:56 | -26.61688 | 152.36470 | 35268 ft | 446 kts | 143° |
| 2026-04-20 20:57 | -26.66280 | 152.41143 | 35259 ft | 447 kts | 142° |
| 2026-04-20 20:57 | -26.70852 | 152.45868 | 35271 ft | 447 kts | 143° |
| 2026-04-20 20:58 | -26.75421 | 152.50598 | 35263 ft | 446 kts | 143° |
| 2026-04-20 20:58 | -26.77711 | 152.52967 | 34846 ft | 452 kts | 142° |
| 2026-04-20 20:58 | -26.80019 | 152.55353 | 34259 ft | 450 kts | 142° |
| 2026-04-20 20:59 | -26.81543 | 152.56929 | 33765 ft | 450 kts | 142° |
| 2026-04-20 20:59 | -26.84578 | 152.60070 | 32952 ft | 446 kts | 142° |
| 2026-04-20 20:59 | -26.86847 | 152.62422 | 32391 ft | 443 kts | 142° |
| 2026-04-20 20:59 | -26.89105 | 152.64758 | 31750 ft | 441 kts | 142° |
| 2026-04-20 21:00 | -26.91360 | 152.67082 | 31096 ft | 440 kts | 142° |
| 2026-04-20 21:00 | -26.93608 | 152.69398 | 30594 ft | 436 kts | 142° |
| 2026-04-20 21:00 | -26.95107 | 152.70944 | 30290 ft | 432 kts | 142° |
| 2026-04-20 21:00 | -26.97278 | 152.73185 | 29726 ft | 427 kts | 142° |
| 2026-04-20 21:01 | -26.99449 | 152.75427 | 29142 ft | 422 kts | 142° |
| 2026-04-20 21:01 | -27.01603 | 152.77649 | 28528 ft | 419 kts | 142° |
| 2026-04-20 21:01 | -27.03736 | 152.79852 | 27957 ft | 415 kts | 142° |
| 2026-04-20 21:01 | -27.05854 | 152.82041 | 27411 ft | 411 kts | 142° |
| 2026-04-20 21:02 | -27.07947 | 152.84207 | 26902 ft | 407 kts | 142° |
| 2026-04-20 21:02 | -27.10018 | 152.86348 | 26378 ft | 403 kts | 142° |
| 2026-04-20 21:02 | -27.12075 | 152.88475 | 25817 ft | 401 kts | 142° |
| 2026-04-20 21:02 | -27.14120 | 152.90591 | 25267 ft | 398 kts | 142° |
| 2026-04-20 21:03 | -27.16148 | 152.92688 | 24749 ft | 395 kts | 142° |
| 2026-04-20 21:03 | -27.18165 | 152.94775 | 24234 ft | 392 kts | 142° |
| 2026-04-20 21:03 | -27.20167 | 152.96848 | 23733 ft | 390 kts | 142° |
| 2026-04-20 21:03 | -27.22158 | 152.98910 | 23146 ft | 387 kts | 142° |
| 2026-04-20 21:04 | -27.24129 | 153.00953 | 22601 ft | 384 kts | 141° |
| 2026-04-20 21:04 | -27.26055 | 153.02950 | 22082 ft | 380 kts | 141° |
| 2026-04-20 21:04 | -27.27990 | 153.04957 | 21551 ft | 377 kts | 141° |
| 2026-04-20 21:04 | -27.29917 | 153.06957 | 21018 ft | 375 kts | 141° |
| 2026-04-20 21:05 | -27.31828 | 153.08941 | 20511 ft | 372 kts | 141° |
| 2026-04-20 21:05 | -27.33726 | 153.10914 | 20011 ft | 370 kts | 141° |
| 2026-04-20 21:05 | -27.35609 | 153.12871 | 19521 ft | 367 kts | 140° |
| 2026-04-20 21:05 | -27.37425 | 153.14891 | 19037 ft | 367 kts | 135° |
| 2026-04-20 21:06 | -27.39104 | 153.17055 | 18559 ft | 366 kts | 134° |
| 2026-04-20 21:06 | -27.40733 | 153.19200 | 18040 ft | 363 kts | 134° |
| 2026-04-20 21:06 | -27.42368 | 153.21354 | 17576 ft | 361 kts | 134° |
| 2026-04-20 21:06 | -27.43998 | 153.23490 | 17085 ft | 358 kts | 134° |
| 2026-04-20 21:07 | -27.45617 | 153.25601 | 16606 ft | 355 kts | 134° |
| 2026-04-20 21:07 | -27.47216 | 153.27681 | 16358 ft | 346 kts | 134° |
| 2026-04-20 21:07 | -27.48759 | 153.29691 | 16274 ft | 333 kts | 134° |
| 2026-04-20 21:07 | -27.50244 | 153.31623 | 16191 ft | 320 kts | 134° |
| 2026-04-20 21:08 | -27.51849 | 153.33261 | 16080 ft | 304 kts | 153° |
| 2026-04-20 21:08 | -27.53731 | 153.34126 | 16030 ft | 289 kts | 168° |
| 2026-04-20 21:08 | -27.55703 | 153.34517 | 15882 ft | 280 kts | 173° |
| 2026-04-20 21:08 | -27.57607 | 153.34781 | 15583 ft | 279 kts | 174° |
| 2026-04-20 21:09 | -27.59537 | 153.35027 | 15244 ft | 279 kts | 174° |
| 2026-04-20 21:09 | -27.61463 | 153.35273 | 14928 ft | 278 kts | 174° |
| 2026-04-20 21:09 | -27.63380 | 153.35522 | 14632 ft | 277 kts | 174° |
| 2026-04-20 21:09 | -27.65288 | 153.35776 | 14332 ft | 276 kts | 174° |
| 2026-04-20 21:10 | -27.67189 | 153.36033 | 14029 ft | 275 kts | 174° |
| 2026-04-20 21:10 | -27.69081 | 153.36291 | 13743 ft | 272 kts | 173° |
| 2026-04-20 21:10 | -27.70959 | 153.36550 | 13410 ft | 271 kts | 173° |
| 2026-04-20 21:10 | -27.72829 | 153.36808 | 13064 ft | 271 kts | 173° |
| 2026-04-20 21:11 | -27.74696 | 153.37067 | 12733 ft | 270 kts | 173° |
| 2026-04-20 21:11 | -27.76559 | 153.37326 | 12419 ft | 269 kts | 173° |
| 2026-04-20 21:11 | -27.78414 | 153.37584 | 12095 ft | 268 kts | 173° |
| 2026-04-20 21:11 | -27.80265 | 153.37842 | 11784 ft | 268 kts | 173° |
| 2026-04-20 21:12 | -27.82114 | 153.38100 | 11493 ft | 267 kts | 174° |
| 2026-04-20 21:12 | -27.83930 | 153.38353 | 11362 ft | 259 kts | 174° |
| 2026-04-20 21:12 | -27.85692 | 153.38599 | 11250 ft | 251 kts | 174° |
| 2026-04-20 21:12 | -27.87391 | 153.38837 | 11168 ft | 242 kts | 174° |
| 2026-04-20 21:13 | -27.89030 | 153.39066 | 11070 ft | 234 kts | 174° |
| 2026-04-20 21:13 | -27.90626 | 153.39288 | 10899 ft | 229 kts | 174° |
| 2026-04-20 21:13 | -27.92207 | 153.39509 | 10638 ft | 229 kts | 174° |
| 2026-04-20 21:13 | -27.93790 | 153.39730 | 10380 ft | 229 kts | 174° |
| 2026-04-20 21:14 | -27.95350 | 153.39948 | 10134 ft | 228 kts | 174° |
| 2026-04-20 21:14 | -27.96925 | 153.40169 | 9861 ft | 228 kts | 174° |
| 2026-04-20 21:14 | -27.98495 | 153.40389 | 9591 ft | 227 kts | 174° |
| 2026-04-20 21:14 | -28.00073 | 153.40610 | 9111 ft | 235 kts | 174° |
| 2026-04-20 21:15 | -28.01696 | 153.41036 | 8525 ft | 245 kts | 156° |
| 2026-04-20 21:15 | -28.03197 | 153.41982 | 7953 ft | 246 kts | 151° |
| 2026-04-20 21:15 | -28.04651 | 153.42947 | 7381 ft | 238 kts | 151° |
| 2026-04-20 21:15 | -28.06046 | 153.43867 | 6824 ft | 224 kts | 151° |
| 2026-04-20 21:16 | -28.07350 | 153.44719 | 6196 ft | 211 kts | 151° |
| 2026-04-20 21:16 | -28.08574 | 153.45514 | 5653 ft | 189 kts | 152° |
| 2026-04-20 21:16 | -28.09671 | 153.46223 | 5001 ft | 181 kts | 151° |
| 2026-04-20 21:16 | -28.10752 | 153.46920 | 4206 ft | 177 kts | 151° |
| 2026-04-20 21:17 | -28.11823 | 153.47609 | 3354 ft | 176 kts | 152° |
| 2026-04-20 21:17 | -28.13002 | 153.48299 | 3275 ft | 250 kts | 156° |
| 2026-04-20 21:17 | -28.14449 | 153.49303 | 2479 ft | 234 kts | 131° |
| 2026-04-20 21:17 | -28.14607 | 153.51012 | 2246 ft | 234 kts | 72° |
| 2026-04-20 21:18 | -28.13237 | 153.51972 | 1764 ft | 242 kts | 1° |
| 2026-04-20 21:18 | -28.11765 | 153.51540 | 1966 ft | 200 kts | 322° |
| 2026-04-20 21:18 | -28.10993 | 153.50447 | 1717 ft | 165 kts | 274° |
| 2026-04-20 21:18 | -28.11170 | 153.49380 | 1421 ft | 130 kts | 220° |
| 2026-04-20 21:19 | -28.11898 | 153.48854 | 1010 ft | 119 kts | 183° |
| 2026-04-20 21:19 | -28.12690 | 153.48908 | 775 ft | 115 kts | 170° |
| 2026-04-20 21:19 | -28.13506 | 153.49068 | 623 ft | 124 kts | 169° |
| 2026-04-20 21:20 | -28.15122 | 153.49745 | 197 ft | 123 kts | 153° |
| 2026-04-20 21:20 | -28.15857 | 153.50222 | 51 ft | 113 kts | 156° |
| 2026-04-20 21:20 | -28.16471 | 153.50599 | 28 ft | 88 kts | 150° |
| 2026-04-20 21:20 | -28.16836 | 153.50829 | 27 ft | 31 kts | 150° |
| 2026-04-20 21:21 | -28.16930 | 153.50968 | 29 ft | 21 kts | 67° |